createdAt,value
2023-03-22T00:01:10.433Z,65928.16
2023-03-22T00:06:17.469Z,66037.13
2023-03-22T00:11:24.305Z,65991.72
2023-03-22T00:16:28.550Z,66027.56
2023-03-22T00:21:34.021Z,65911.38
2023-03-22T00:26:38.339Z,65985.81
2023-03-22T00:31:43.173Z,65868.59
2023-03-22T00:36:49.372Z,65761.81
2023-03-22T00:41:53.488Z,65915.13
2023-03-22T00:46:57.603Z,65812.03
2023-03-22T00:52:03.093Z,65847.84
2023-03-22T00:57:07.953Z,65729.75
2023-03-22T01:02:13.769Z,65778.25
2023-03-22T01:07:21.533Z,65715.84
2023-03-22T01:12:26.054Z,65787.78
2023-03-22T01:17:30.151Z,65816.31
2023-03-22T01:22:35.598Z,65711.94
2023-03-22T01:27:40.065Z,65785.31
2023-03-22T01:32:44.140Z,65648.50
2023-03-22T01:37:49.827Z,65727.06
2023-03-22T01:42:55.168Z,65757.97
2023-03-22T01:48:03.207Z,65709.34
2023-03-22T01:53:19.061Z,65777.72
2023-03-22T01:58:24.576Z,65723.44
2023-03-22T02:03:39.245Z,65782.44
2023-03-22T02:08:45.648Z,65822.72
2023-03-22T02:14:11.786Z,65804.03
2023-03-22T02:20:12.618Z,65829.59
2023-03-22T02:26:04.955Z,65829.34
2023-03-22T02:31:25.546Z,65896.50
2023-03-22T02:36:59.657Z,65844.72
2023-03-22T02:42:17.873Z,65836.81
2023-03-22T02:47:26.166Z,65822.09
2023-03-22T02:52:39.586Z,65709.56
2023-03-22T02:57:49.579Z,65768.72
2023-03-22T03:03:00.137Z,65830.66
2023-03-22T03:08:05.771Z,65764.56
2023-03-22T03:13:16.290Z,65541.19
2023-03-22T03:18:35.882Z,65616.69
2023-03-22T03:23:50.438Z,65745.69
2023-03-22T03:29:02.018Z,65658.75
2023-03-22T03:34:14.833Z,65554.72
2023-03-22T03:39:22.140Z,65603.16
2023-03-22T03:44:31.760Z,65629.91
2023-03-22T03:49:36.623Z,65566.00
2023-03-22T03:54:42.852Z,65568.56
2023-03-22T03:59:53.796Z,65789.03
2023-03-22T04:05:18.127Z,65721.75
2023-03-22T04:10:22.396Z,65784.31
2023-03-22T04:15:28.089Z,65848.38
2023-03-22T04:20:35.457Z,65901.94
2023-03-22T04:25:39.693Z,65873.50
2023-03-22T04:30:52.002Z,65850.44
2023-03-22T04:36:31.301Z,65813.19
2023-03-22T04:42:00.853Z,65854.16
2023-03-22T04:47:06.981Z,65703.25
2023-03-22T04:52:12.038Z,65798.78
2023-03-22T04:57:18.348Z,65873.94
2023-03-22T05:02:26.960Z,65865.03
2023-03-22T05:07:32.329Z,65896.50
2023-03-22T05:12:38.827Z,65884.63
2023-03-22T05:18:10.493Z,65920.47
2023-03-22T05:23:19.242Z,65961.13
2023-03-22T05:28:28.675Z,65927.53
2023-03-22T05:33:56.457Z,65976.09
2023-03-22T05:39:04.869Z,65889.00
2023-03-22T05:44:09.456Z,65890.69
2023-03-22T05:49:19.099Z,65949.53
2023-03-22T05:54:23.270Z,65912.53
2023-03-22T05:59:28.871Z,65904.00
2023-03-22T06:04:34.699Z,65927.06
2023-03-22T06:09:45.052Z,65868.16
2023-03-22T06:14:53.816Z,65897.03
2023-03-22T06:20:19.777Z,65897.75
2023-03-22T06:25:30.728Z,65908.72
2023-03-22T06:30:35.664Z,65857.13
2023-03-22T06:36:05.553Z,65986.34
2023-03-22T06:41:38.917Z,65912.53
2023-03-22T06:46:43.112Z,65975.13
2023-03-22T06:51:58.552Z,65938.84
2023-03-22T06:57:03.426Z,65919.59
2023-03-22T07:02:07.821Z,65998.69
2023-03-22T07:07:13.573Z,65990.66
2023-03-22T07:12:18.779Z,65975.13
2023-03-22T07:17:24.367Z,65974.78
2023-03-22T07:22:30.701Z,65994.94
2023-03-22T07:27:34.883Z,66047.59
2023-03-22T07:32:41.296Z,66054.38
2023-03-22T07:37:52.865Z,66086.03
2023-03-22T07:43:03.245Z,66107.91
2023-03-22T07:48:28.941Z,66109.63
2023-03-22T07:53:57.692Z,66070.06
2023-03-22T07:59:02.200Z,66249.97
2023-03-22T08:04:06.885Z,66225.97
2023-03-22T08:09:35.374Z,66103.09
2023-03-22T08:14:40.125Z,66241.63
2023-03-22T08:19:51.299Z,66251.03
2023-03-22T08:25:02.233Z,66278.47
2023-03-22T08:30:11.268Z,66306.97
2023-03-22T08:35:15.675Z,66401.34
2023-03-22T08:40:23.057Z,66328.28
2023-03-22T08:45:31.601Z,66408.75
2023-03-22T08:50:43.688Z,66368.50
2023-03-22T08:56:01.839Z,66287.06
2023-03-22T09:01:21.579Z,66372.72
2023-03-22T09:06:30.895Z,66364.28
2023-03-22T09:11:37.343Z,66238.22
2023-03-22T09:16:41.580Z,66291.78
2023-03-22T09:21:46.060Z,66384.53
2023-03-22T09:27:04.669Z,66531.25
2023-03-22T09:32:09.206Z,66369.13
2023-03-22T09:37:16.218Z,66431.31
2023-03-22T09:42:34.577Z,66376.19
2023-03-22T09:47:45.861Z,66499.00
2023-03-22T09:52:50.927Z,66524.25
2023-03-22T09:58:04.226Z,66627.47
2023-03-22T10:03:21.976Z,66633.47
2023-03-22T10:08:35.352Z,66610.19
2023-03-22T10:13:47.014Z,66655.03
2023-03-22T10:18:53.633Z,66625.84
2023-03-22T10:24:02.780Z,66517.28
2023-03-22T10:29:14.822Z,66706.09
2023-03-22T10:34:23.023Z,66632.38
2023-03-22T10:39:33.695Z,66655.03
2023-03-22T10:44:49.038Z,66791.09
2023-03-22T10:49:57.281Z,66749.81
2023-03-22T10:55:04.478Z,66747.44
2023-03-22T11:00:17.713Z,66704.53
2023-03-22T11:05:25.881Z,66741.59
2023-03-22T11:10:32.900Z,66828.66
2023-03-22T11:15:42.069Z,66877.13
2023-03-22T11:20:57.047Z,66779.72
2023-03-22T11:26:07.153Z,66827.81
2023-03-22T11:31:14.599Z,66772.81
2023-03-22T11:36:20.191Z,66860.59
2023-03-22T11:41:25.762Z,66842.69
2023-03-22T11:46:32.882Z,66981.84
2023-03-22T11:51:39.667Z,66978.00
2023-03-22T11:56:47.318Z,67143.19
2023-03-22T12:01:59.718Z,67228.94
2023-03-22T12:07:12.022Z,67382.44
2023-03-22T12:12:20.720Z,67493.16
2023-03-22T12:17:33.614Z,67008.13
2023-03-22T12:22:43.327Z,67095.09
2023-03-22T12:27:52.718Z,67112.34
2023-03-22T12:33:04.913Z,67329.91
2023-03-22T12:38:28.250Z,66921.00
2023-03-22T12:43:44.564Z,66870.75
2023-03-22T12:48:53.227Z,66809.88
2023-03-22T12:53:59.962Z,66973.69
2023-03-22T12:59:07.017Z,66987.81
2023-03-22T13:04:50.975Z,66922.63
2023-03-22T13:09:55.041Z,67064.28
2023-03-22T13:15:02.974Z,67118.28
2023-03-22T13:20:27.825Z,66979.59
2023-03-22T13:25:36.662Z,66955.34
2023-03-22T13:30:52.689Z,66898.84
2023-03-22T13:36:02.030Z,66885.91
2023-03-22T13:41:09.473Z,67064.34
2023-03-22T13:46:28.426Z,67286.59
2023-03-22T13:51:35.216Z,67350.03
2023-03-22T13:56:52.963Z,67321.25
2023-03-22T14:02:01.648Z,67274.84
2023-03-22T14:07:14.953Z,67194.94
2023-03-22T14:12:23.839Z,67205.19
2023-03-22T14:17:39.957Z,67125.75
